Denver, Colorado
Traffic Map
Current Weather Conditions
Denver, Colorado
Broken Clouds
Broken Clouds
66°
Feels Like: 66°
Wind Chill: 66° Ceiling: 5000
Heat Index: 66° Visibility: 10mi
Dew Point: 47° Wind: 13mph
Humidity: 52% Direction: 140° (SE)
Pressure: 29.97in Gusts: 23mph
Raw Report DataKBKF 241658Z 14011G20KT 10SM BKN050 BKN110 19/09 A2997 RMK AO2A SLP094 T01870086
Traffic Incident Summary
Active as of:
Severity:
Category:
InformationThere was an issue retrieving the traffic information for this location. Please try a different location or try again shortly.
Advertisements
Track Severe Weather on mobile